Time;durP1;ratioP1;P1;durP2;ratioP2;P2;SDS_P1;SDS_P2;PMS_P1;PMS_P2;Temp;Humidity;BMP_temperature;BMP_pressure;BME280_temperature;BME280_humidity;BME280_pressure;Samples;Min_cycle;Max_cycle;Signal;HPM_P1;HPM_P2
2022/09/05 00:02:28;;;;;;;;;;;;;;;;;;5031459;28;7180;-85
2022/09/05 00:04:57;;;;;;;;;;;;;;;;;;5014238;28;7189;-85
2022/09/05 00:07:41;;;;;;;;;;;;;;;;;;5030524;28;8704;-84
2022/09/05 00:10:25;;;;;;;;;;;;;;;;;;5031032;28;8377;-85
2022/09/05 00:12:55;;;;;;;;;;;;;;;;;;5030617;28;7034;-85
2022/09/05 00:15:33;;;;;;;;;;;;;;;;;;5014270;28;8680;-84
2022/09/05 00:18:24;;;;;;;;;;;;;;;;;;5031081;28;7141;-84
2022/09/05 00:20:58;;;;;;;;;;;;;;;;;;5014024;28;7359;-84
2022/09/05 00:23:47;;;;;;;;;;;;;;;;;;5030902;28;8931;-83
2022/09/05 00:26:17;;;;;;;;;;;;;;;;;;5005980;28;7244;-84
2022/09/05 00:29:01;;;;;;;;;;;;;;;;;;5030803;28;8799;-84
2022/09/05 00:31:32;;;;;;;;;;;;;;;;;;5030608;28;8331;-84
2022/09/05 00:34:07;;;;;;;;;;;;;;;;;;5030455;28;8644;-84
2022/09/05 00:36:39;;;;;;;;;;;;;;;;;;5014485;28;6918;-83
2022/09/05 00:39:11;;;;;;;;;;;;;;;;;;5030504;28;7152;-84
2022/09/05 00:41:38;;;;;;;;;;;;;;;;;;5014115;28;8764;-84
2022/09/05 00:44:05;;;;;;;;;;;;;;;;;;5014007;28;8388;-84
2022/09/05 00:46:36;;;;;;;;;;;;;;;;;;5013591;28;8761;-82
2022/09/05 00:49:12;;;;;;;;;;;;;;;;;;5014350;28;8504;-84
2022/09/05 00:51:50;;;;;;;;;;;;;;;;;;5013664;28;8523;-83
2022/09/05 00:54:32;;;;;;;;;;;;;;;;;;5014198;28;7339;-83
2022/09/05 00:57:13;;;;;;;;;;;;;;;;;;5014154;28;8434;-85
2022/09/05 00:59:51;;;;;;;;;;;;;;;;;;5030494;28;8721;-85
2022/09/05 01:02:35;;;;;;;;;;;;;;;;;;5030090;28;7199;-85
2022/09/05 01:05:14;;;;;;;;;;;;;;;;;;5030526;28;8411;-85
2022/09/05 01:07:58;;;;;;;;;;;;;;;;;;5017553;28;7036;-85
2022/09/05 01:10:24;;;;;;;;;;;;;;;;;;5034206;28;8585;-82
2022/09/05 01:13:15;;;;;;;;;;;;;;;;;;5033786;28;7268;-83
2022/09/05 01:15:40;;;;;;;;;;;;;;;;;;5018067;28;7262;-83
2022/09/05 01:18:20;;;;;;;;;;;;;;;;;;5034433;28;8931;-83
2022/09/05 01:20:51;;;;;;;;;;;;;;;;;;5017535;28;7177;-84
2022/09/05 01:23:45;;;;;;;;;;;;;;;;;;5034860;28;9477;-83
2022/09/05 01:26:10;;;;;;;;;;;;;;;;;;5017809;28;7187;-85
2022/09/05 01:29:00;;;;;;;;;;;;;;;;;;5033797;28;8739;-85
2022/09/05 01:31:49;;;;;;;;;;;;;;;;;;5017285;28;9556;-84
2022/09/05 01:34:32;;;;;;;;;;;;;;;;;;5009055;28;8638;-84
2022/09/05 01:37:17;;;;;;;;;;;;;;;;;;5016908;28;8323;-84
2022/09/05 01:39:49;;;;;;;;;;;;;;;;;;5017681;28;8970;-83
2022/09/05 01:42:33;;;;;;;;;;;;;;;;;;5016845;28;8968;-84
2022/09/05 01:45:19;;;;;;;;;;;;;;;;;;5035429;28;8780;-85
2022/09/05 01:48:05;;;;;;;;;;;;;;;;;;5016726;28;8800;-84
2022/09/05 01:50:36;;;;;;;;;;;;;;;;;;5016510;28;8731;-84
2022/09/05 01:53:24;;;;;;;;;;;;;;;;;;5033654;28;8553;-83
2022/09/05 01:56:10;;;;;;;;;;;;;;;;;;5033265;28;9178;-84
2022/09/05 01:58:36;;;;;;;;;;;;;;;;;;5016873;28;8779;-85
2022/09/05 02:01:09;;;;;;;;;;;;;;;;;;5032927;28;8434;-84
2022/09/05 02:03:46;;;;;;;;;;;;;;;;;;5016710;28;7173;-84
2022/09/05 02:06:30;;;;;;;;;;;;;;;;;;5016765;28;8403;-83
2022/09/05 02:08:59;;;;;;;;;;;;;;;;;;5033207;28;6863;-84
2022/09/05 02:11:50;;;;;;;;;;;;;;;;;;5033063;28;8551;-83
2022/09/05 02:14:22;;;;;;;;;;;;;;;;;;4993782;28;8489;-84
2022/09/05 02:16:48;;;;;;;;;;;;;;;;;;5032950;28;8874;-83
2022/09/05 02:19:13;;;;;;;;;;;;;;;;;;5016574;28;8739;-82
2022/09/05 02:21:58;;;;;;;;;;;;;;;;;;5032491;28;7011;-84
2022/09/05 02:24:33;;;;;;;;;;;;;;;;;;5032989;28;7242;-84
2022/09/05 02:27:17;;;;;;;;;;;;;;;;;;5032437;28;7091;-84
2022/09/05 02:29:54;;;;;;;;;;;;;;;;;;5033226;28;8407;-84
2022/09/05 02:32:29;;;;;;;;;;;;;;;;;;5032651;28;7219;-84
2022/09/05 02:35:07;;;;;;;;;;;;;;;;;;5015967;28;7393;-85
2022/09/05 02:37:36;;;;;;;;;;;;;;;;;;5016178;28;7190;-85
2022/09/05 02:40:13;;;;;;;;;;;;;;;;;;5032426;28;7266;-84
2022/09/05 02:43:00;;;;;;;;;;;;;;;;;;5032635;28;7205;-83
2022/09/05 02:45:44;;;;;;;;;;;;;;;;;;5016578;28;8417;-83
2022/09/05 02:48:33;;;;;;;;;;;;;;;;;;5032336;28;7198;-84
2022/09/05 02:51:07;;;;;;;;;;;;;;;;;;5007885;28;7002;-85
2022/09/05 02:53:37;;;;;;;;;;;;;;;;;;5032635;28;8419;-84
2022/09/05 02:56:22;;;;;;;;;;;;;;;;;;5016093;28;7465;-84
2022/09/05 02:58:56;;;;;;;;;;;;;;;;;;5016013;28;8587;-85
2022/09/05 03:01:37;;;;;;;;;;;;;;;;;;5016060;28;8432;-84
2022/09/05 03:04:15;;;;;;;;;;;;;;;;;;5015901;28;8384;-83
2022/09/05 03:06:54;;;;;;;;;;;;;;;;;;5015566;28;7042;-84
2022/09/05 03:09:36;;;;;;;;;;;;;;;;;;5015280;28;7179;-84
2022/09/05 03:12:20;;;;;;;;;;;;;;;;;;5015551;28;7062;-83
2022/09/05 03:15:11;;;;;;;;;;;;;;;;;;5016112;28;7243;-84
2022/09/05 03:17:52;;;;;;;;;;;;;;;;;;5015678;28;8700;-85
2022/09/05 03:20:36;;;;;;;;;;;;;;;;;;5032148;28;8394;-85
2022/09/05 03:23:08;;;;;;;;;;;;;;;;;;5031747;28;7062;-84
2022/09/05 03:25:49;;;;;;;;;;;;;;;;;;5031819;28;7206;-84
2022/09/05 03:28:17;;;;;;;;;;;;;;;;;;5030912;28;8406;-85
2022/09/05 03:30:42;;;;;;;;;;;;;;;;;;5031883;28;7350;-84
2022/09/05 03:33:17;;;;;;;;;;;;;;;;;;5031623;28;8390;-84
2022/09/05 03:35:48;;;;;;;;;;;;;;;;;;5031599;28;8906;-83
2022/09/05 03:38:14;;;;;;;;;;;;;;;;;;5031843;28;7039;-83
2022/09/05 03:41:06;;;;;;;;;;;;;;;;;;5031543;28;8349;-84
2022/09/05 03:43:54;;;;;;;;;;;;;;;;;;4992485;28;8469;-84
2022/09/05 03:46:38;;;;;;;;;;;;;;;;;;5014237;28;7137;-84
2022/09/05 03:49:09;;;;;;;;;;;;;;;;;;5014594;28;7147;-84
2022/09/05 03:51:53;;;;;;;;;;;;;;;;;;5031255;28;8554;-84
2022/09/05 03:54:19;;;;;;;;;;;;;;;;;;5031228;28;8302;-84
2022/09/05 03:57:03;;;;;;;;;;;;;;;;;;5031299;28;8299;-85
2022/09/05 03:59:31;;;;;;;;;;;;;;;;;;5030839;28;8726;-85
2022/09/05 04:02:05;;;;;;;;;;;;;;;;;;5031142;28;8421;-85
2022/09/05 04:04:50;;;;;;;;;;;;;;;;;;5014478;28;7176;-85
2022/09/05 04:07:21;;;;;;;;;;;;;;;;;;5015082;28;8499;-85
2022/09/05 04:09:47;;;;;;;;;;;;;;;;;;5014167;28;7152;-82
2022/09/05 04:12:17;;;;;;;;;;;;;;;;;;5031144;28;8445;-84
2022/09/05 04:14:52;;;;;;;;;;;;;;;;;;5014575;28;9012;-84
2022/09/05 04:17:27;;;;;;;;;;;;;;;;;;5014819;28;8427;-84
2022/09/05 04:20:19;;;;;;;;;;;;;;;;;;5015069;28;7188;-84
2022/09/05 04:23:03;;;;;;;;;;;;;;;;;;5011202;28;8747;-84
2022/09/05 04:25:38;;;;;;;;;;;;;;;;;;5030832;28;8302;-84
2022/09/05 04:28:19;;;;;;;;;;;;;;;;;;5030234;28;8893;-84
2022/09/05 04:30:44;;;;;;;;;;;;;;;;;;5030857;28;8419;-83
2022/09/05 04:33:48;;;;;;;;;;;;;;;;;;5030364;28;7030;-85
2022/09/05 04:36:26;;;;;;;;;;;;;;;;;;4958291;28;8415;-84
2022/09/05 04:39:09;;;;;;;;;;;;;;;;;;4974001;28;7139;-83
2022/09/05 04:41:42;;;;;;;;;;;;;;;;;;4958096;28;8403;-84
2022/09/05 04:44:15;;;;;;;;;;;;;;;;;;4974131;28;8424;-85
2022/09/05 04:46:47;;;;;;;;;;;;;;;;;;4973855;28;8417;-85
2022/09/05 04:49:19;;;;;;;;;;;;;;;;;;4973964;28;8446;-84
2022/09/05 04:52:03;;;;;;;;;;;;;;;;;;4974012;28;8471;-84
2022/09/05 04:54:29;;;;;;;;;;;;;;;;;;4957718;28;7251;-84
2022/09/05 04:57:17;;;;;;;;;;;;;;;;;;4973971;28;8911;-84
2022/09/05 04:59:50;;;;;;;;;;;;;;;;;;4971156;28;8817;-84
2022/09/05 05:02:21;;;;;;;;;;;;;;;;;;4973781;28;8430;-84
2022/09/05 05:04:49;;;;;;;;;;;;;;;;;;4973769;28;7393;-84
2022/09/05 05:07:23;;;;;;;;;;;;;;;;;;4998041;28;7031;-84
2022/09/05 05:09:55;;;;;;;;;;;;;;;;;;5013838;28;7150;-84
2022/09/05 05:12:30;;;;;;;;;;;;;;;;;;5013701;28;7163;-84
2022/09/05 05:15:12;;;;;;;;;;;;;;;;;;5030572;28;8734;-83
2022/09/05 05:17:51;;;;;;;;;;;;;;;;;;5013435;28;7433;-84
2022/09/05 05:20:27;;;;;;;;;;;;;;;;;;5013497;28;7045;-83
2022/09/05 05:23:02;;;;;;;;;;;;;;;;;;5013402;28;8465;-85
2022/09/05 05:25:30;;;;;;;;;;;;;;;;;;5030256;28;7170;-84
2022/09/05 05:28:00;;;;;;;;;;;;;;;;;;5013275;28;7079;-84
2022/09/05 05:30:28;;;;;;;;;;;;;;;;;;5030003;28;7169;-84
2022/09/05 05:32:57;;;;;;;;;;;;;;;;;;5013667;28;8421;-84
2022/09/05 05:35:32;;;;;;;;;;;;;;;;;;5014001;28;7620;-84
2022/09/05 05:38:06;;;;;;;;;;;;;;;;;;4993922;28;8486;-85
2022/09/05 05:40:35;;;;;;;;;;;;;;;;;;4994190;28;7222;-83
2022/09/05 05:43:20;;;;;;;;;;;;;;;;;;5010909;28;7358;-84
2022/09/05 05:45:55;;;;;;;;;;;;;;;;;;5010183;28;7252;-83
2022/09/05 05:48:20;;;;;;;;;;;;;;;;;;5010005;28;7053;-84
2022/09/05 05:50:46;;;;;;;;;;;;;;;;;;5010396;28;8432;-84
2022/09/05 05:53:12;;;;;;;;;;;;;;;;;;5014050;28;8787;-83
2022/09/05 05:55:38;;;;;;;;;;;;;;;;;;5013401;28;7201;-85
2022/09/05 05:58:22;;;;;;;;;;;;;;;;;;5013444;28;8718;-84
2022/09/05 06:00:53;;;;;;;;;;;;;;;;;;5013722;28;8841;-85
2022/09/05 06:03:38;;;;;;;;;;;;;;;;;;5013463;28;8323;-84
2022/09/05 06:06:06;;;;;;;;;;;;;;;;;;5013847;28;7333;-85
2022/09/05 06:08:50;;;;;;;;;;;;;;;;;;5013648;28;7187;-85
2022/09/05 06:11:18;;;;;;;;;;;;;;;;;;5013309;28;8291;-84
2022/09/05 06:13:52;;;;;;;;;;;;;;;;;;5013897;28;7070;-84
2022/09/05 06:16:36;;;;;;;;;;;;;;;;;;5013301;28;7075;-84
2022/09/05 06:19:02;;;;;;;;;;;;;;;;;;5011936;28;8451;-84
2022/09/05 06:21:52;;;;;;;;;;;;;;;;;;4994564;28;8709;-83
2022/09/05 06:24:36;;;;;;;;;;;;;;;;;;5013076;28;8497;-83
2022/09/05 06:27:20;;;;;;;;;;;;;;;;;;5013019;28;8369;-87
2022/09/05 06:29:45;;;;;;;;;;;;;;;;;;5012785;28;8749;-86
2022/09/05 06:32:26;;;;;;;;;;;;;;;;;;5012638;28;8944;-85
2022/09/05 06:35:10;;;;;;;;;;;;;;;;;;5013083;28;8356;-86
2022/09/05 06:37:41;;;;;;;;;;;;;;;;;;5013190;28;8742;-85
2022/09/05 06:40:18;;;;;;;;;;;;;;;;;;4996608;28;7211;-85
2022/09/05 06:43:19;;;;;;;;;;;;;;;;;;5012942;28;7227;-85
2022/09/05 06:46:03;;;;;;;;;;;;;;;;;;4940541;28;7368;-87
2022/09/05 06:48:42;;;;;;;;;;;;;;;;;;4991220;28;8432;-86
2022/09/05 06:51:26;;;;;;;;;;;;;;;;;;5013267;28;8350;-85
2022/09/05 06:54:15;;;;;;;;;;;;;;;;;;5012406;28;8734;-86
2022/09/05 06:56:52;;;;;;;;;;;;;;;;;;4940451;28;8418;-85
2022/09/05 06:59:33;;;;;;;;;;;;;;;;;;4956675;28;8819;-86
2022/09/05 07:02:07;;;;;;;;;;;;;;;;;;4940394;28;8469;-85
2022/09/05 07:04:41;;;;;;;;;;;;;;;;;;4956266;28;7208;-85
2022/09/05 07:07:09;;;;;;;;;;;;;;;;;;4956591;28;8439;-86
2022/09/05 07:09:47;;;;;;;;;;;;;;;;;;4940283;28;7189;-85
2022/09/05 07:12:26;;;;;;;;;;;;;;;;;;4940177;28;7037;-85
2022/09/05 07:14:52;;;;;;;;;;;;;;;;;;4956282;28;8749;-85
2022/09/05 07:17:35;;;;;;;;;;;;;;;;;;4940095;28;7104;-86
2022/09/05 07:20:12;;;;;;;;;;;;;;;;;;4956206;28;8519;-86
2022/09/05 07:22:38;;;;;;;;;;;;;;;;;;4956275;28;8812;-86
2022/09/05 07:25:07;;;;;;;;;;;;;;;;;;4939954;28;8366;-85
2022/09/05 07:27:38;;;;;;;;;;;;;;;;;;4955795;28;8465;-86
2022/09/05 07:30:05;;;;;;;;;;;;;;;;;;4940008;28;8429;-84
2022/09/05 07:32:38;;;;;;;;;;;;;;;;;;4956815;28;9452;-85
2022/09/05 07:35:06;;;;;;;;;;;;;;;;;;5011572;28;8542;-86
2022/09/05 07:37:41;;;;;;;;;;;;;;;;;;5011729;28;8445;-85
2022/09/05 07:40:16;;;;;;;;;;;;;;;;;;5011479;28;7089;-85
2022/09/05 07:42:51;;;;;;;;;;;;;;;;;;5013102;28;7135;-85
2022/09/05 07:45:24;;;;;;;;;;;;;;;;;;5011531;28;7207;-84
2022/09/05 07:47:58;;;;;;;;;;;;;;;;;;5011112;28;7026;-86
2022/09/05 07:50:25;;;;;;;;;;;;;;;;;;5011969;28;8592;-85
2022/09/05 07:52:54;;;;;;;;;;;;;;;;;;5011375;28;8438;-87
2022/09/05 07:55:24;;;;;;;;;;;;;;;;;;5011263;28;7392;-86
2022/09/05 07:57:53;;;;;;;;;;;;;;;;;;5011237;28;8546;-87
2022/09/05 08:00:20;;;;;;;;;;;;;;;;;;5011019;28;7813;-88
2022/09/05 08:02:46;;;;;;;;;;;;;;;;;;5011553;28;6850;-88
2022/09/05 08:05:18;;;;;;;;;;;;;;;;;;5011063;28;8512;-87
2022/09/05 08:07:47;;;;;;;;;;;;;;;;;;5011938;28;7228;-86
2022/09/05 08:10:26;;;;;;;;;;;;;;;;;;5019865;28;8775;-87
2022/09/05 08:12:57;;;;;;;;;;;;;;;;;;5031057;28;6956;-88
2022/09/05 08:15:28;;;;;;;;;;;;;;;;;;5030516;28;8525;-85
2022/09/05 08:18:02;;;;;;;;;;;;;;;;;;5030585;28;8340;-85
2022/09/05 08:20:46;;;;;;;;;;;;;;;;;;5014011;28;8855;-85
2022/09/05 08:23:15;;;;;;;;;;;;;;;;;;5014253;28;8488;-85
2022/09/05 08:25:55;;;;;;;;;;;;;;;;;;5013831;28;8454;-85
2022/09/05 08:28:40;;;;;;;;;;;;;;;;;;5030595;28;8404;-86
2022/09/05 08:31:13;;;;;;;;;;;;;;;;;;5014025;28;8455;-85
2022/09/05 08:33:39;;;;;;;;;;;;;;;;;;5030511;28;8488;-83
2022/09/05 08:36:23;;;;;;;;;;;;;;;;;;5030298;28;8747;-85
2022/09/05 08:38:49;;;;;;;;;;;;;;;;;;5013894;28;8996;-84
2022/09/05 08:41:15;;;;;;;;;;;;;;;;;;5030189;28;8419;-85
2022/09/05 08:43:55;;;;;;;;;;;;;;;;;;5014640;28;9536;-86
2022/09/05 08:46:33;;;;;;;;;;;;;;;;;;5030282;28;8484;-85
2022/09/05 08:48:59;;;;;;;;;;;;;;;;;;5030208;28;8570;-86
2022/09/05 08:51:24;;;;;;;;;;;;;;;;;;5013748;28;8539;-85
2022/09/05 08:53:50;;;;;;;;;;;;;;;;;;5013579;28;8676;-84
2022/09/05 08:56:41;;;;;;;;;;;;;;;;;;5013263;28;7203;-87
2022/09/05 08:59:07;;;;;;;;;;;;;;;;;;5011536;28;8486;-85
2022/09/05 09:01:39;;;;;;;;;;;;;;;;;;5013381;28;8797;-85
2022/09/05 09:04:34;;;;;;;;;;;;;;;;;;5030215;28;8979;-85
2022/09/05 09:07:05;;;;;;;;;;;;;;;;;;5004854;28;8496;-85
2022/09/05 09:09:31;;;;;;;;;;;;;;;;;;5013812;28;8473;-86
2022/09/05 09:12:10;;;;;;;;;;;;;;;;;;5013390;28;8449;-85
2022/09/05 09:14:56;;;;;;;;;;;;;;;;;;5030479;28;8690;-86
2022/09/05 09:17:22;;;;;;;;;;;;;;;;;;5030181;28;8565;-85
2022/09/05 09:19:50;;;;;;;;;;;;;;;;;;5013275;28;7301;-85
2022/09/05 09:22:31;;;;;;;;;;;;;;;;;;5013575;28;8976;-85
2022/09/05 09:25:09;;;;;;;;;;;;;;;;;;5016693;28;7125;-84
2022/09/05 09:27:52;;;;;;;;;;;;;;;;;;4996737;28;8797;-85
2022/09/05 09:30:19;;;;;;;;;;;;;;;;;;5014475;28;8488;-85
2022/09/05 09:32:49;;;;;;;;;;;;;;;;;;5013854;28;7358;-85
2022/09/05 09:35:33;;;;;;;;;;;;;;;;;;5013982;28;8582;-86
2022/09/05 09:38:12;;;;;;;;;;;;;;;;;;4997348;28;8777;-86
2022/09/05 09:40:38;;;;;;;;;;;;;;;;;;5013521;28;7415;-85
2022/09/05 09:43:28;;;;;;;;;;;;;;;;;;4997300;28;9123;-85
2022/09/05 09:46:02;;;;;;;;;;;;;;;;;;5013544;28;8617;-85
2022/09/05 09:48:46;;;;;;;;;;;;;;;;;;4997744;28;8790;-86
2022/09/05 09:51:30;;;;;;;;;;;;;;;;;;4997129;28;8378;-85
2022/09/05 09:54:15;;;;;;;;;;;;;;;;;;4997681;28;8505;-83
2022/09/05 09:57:02;;;;;;;;;;;;;;;;;;4998949;28;8507;-84
2022/09/05 09:59:46;;;;;;;;;;;;;;;;;;5012586;28;7280;-83
2022/09/05 10:02:38;;;;;;;;;;;;;;;;;;4996625;28;7273;-84
2022/09/05 10:05:22;;;;;;;;;;;;;;;;;;4974959;28;7248;-84
2022/09/05 10:08:06;;;;;;;;;;;;;;;;;;4996829;28;8723;-82
2022/09/05 10:10:32;;;;;;;;;;;;;;;;;;4997289;28;8509;-83
2022/09/05 10:13:16;;;;;;;;;;;;;;;;;;4996716;28;8409;-84
2022/09/05 10:15:57;;;;;;;;;;;;;;;;;;4996531;28;8612;-82
2022/09/05 10:18:41;;;;;;;;;;;;;;;;;;4996653;28;8939;-84
2022/09/05 10:21:13;;;;;;;;;;;;;;;;;;4996606;28;8906;-84
2022/09/05 10:23:56;;;;;;;;;;;;;;;;;;4996654;28;8979;-83
2022/09/05 10:26:58;;;;;;;;;;;;;;;;;;5013332;28;8857;-83
2022/09/05 10:29:41;;;;;;;;;;;;;;;;;;5012995;28;8864;-83
2022/09/05 10:32:13;;;;;;;;;;;;;;;;;;4996709;28;9006;-86
2022/09/05 10:34:59;;;;;;;;;;;;;;;;;;5012660;28;7536;-84
2022/09/05 10:37:35;;;;;;;;;;;;;;;;;;5012596;28;8983;-84
2022/09/05 10:40:06;;;;;;;;;;;;;;;;;;5012877;28;8804;-83
2022/09/05 10:42:42;;;;;;;;;;;;;;;;;;5012509;28;8535;-83
2022/09/05 10:45:14;;;;;;;;;;;;;;;;;;5012612;28;8902;-84
2022/09/05 10:48:08;;;;;;;;;;;;;;;;;;5012129;28;7121;-85
2022/09/05 10:50:40;;;;;;;;;;;;;;;;;;5012135;28;8512;-85
2022/09/05 10:53:21;;;;;;;;;;;;;;;;;;5012314;28;8833;-86
2022/09/05 10:55:53;;;;;;;;;;;;;;;;;;5011904;28;8539;-86
2022/09/05 10:58:23;;;;;;;;;;;;;;;;;;4994262;28;7284;-84
2022/09/05 11:01:20;;;;;;;;;;;;;;;;;;4994664;28;8428;-81
2022/09/05 11:03:49;;;;;;;;;;;;;;;;;;5010491;28;7323;-82
2022/09/05 11:06:18;;;;;;;;;;;;;;;;;;4994040;28;7257;-85
2022/09/05 11:08:54;;;;;;;;;;;;;;;;;;5010527;28;7283;-84
2022/09/05 11:11:26;;;;;;;;;;;;;;;;;;5010982;28;8531;-84
2022/09/05 11:14:03;;;;;;;;;;;;;;;;;;5010899;28;8895;-83
2022/09/05 11:16:38;;;;;;;;;;;;;;;;;;5012169;28;8745;-81
2022/09/05 11:19:18;;;;;;;;;;;;;;;;;;5011684;28;8542;-81
2022/09/05 11:22:13;;;;;;;;;;;;;;;;;;5011225;28;8582;-83
2022/09/05 11:25:00;;;;;;;;;;;;;;;;;;4982589;28;8609;-83
2022/09/05 11:27:35;;;;;;;;;;;;;;;;;;5011477;28;8638;-83
2022/09/05 11:30:01;;;;;;;;;;;;;;;;;;4995168;28;8574;-82
2022/09/05 11:32:47;;;;;;;;;;;;;;;;;;4996041;28;9045;-83
2022/09/05 11:35:22;;;;;;;;;;;;;;;;;;5011331;28;8525;-83
2022/09/05 11:37:57;;;;;;;;;;;;;;;;;;5012209;28;9063;-83
2022/09/05 11:40:32;;;;;;;;;;;;;;;;;;4994982;28;8887;-82
2022/09/05 11:43:24;;;;;;;;;;;;;;;;;;4994998;28;8557;-83
2022/09/05 11:45:58;;;;;;;;;;;;;;;;;;4972528;28;8689;-84
2022/09/05 11:48:42;;;;;;;;;;;;;;;;;;4994568;28;8664;-84
2022/09/05 11:51:08;;;;;;;;;;;;;;;;;;4995040;28;8709;-84
2022/09/05 11:53:50;;;;;;;;;;;;;;;;;;4994927;28;7434;-84
2022/09/05 11:56:43;;;;;;;;;;;;;;;;;;5011202;28;8575;-83
2022/09/05 11:59:29;;;;;;;;;;;;;;;;;;5011196;28;7224;-83
2022/09/05 12:01:55;;;;;;;;;;;;;;;;;;4994204;28;8523;-83
2022/09/05 12:04:35;;;;;;;;;;;;;;;;;;4994718;28;8671;-84
2022/09/05 12:07:30;;;;;;;;;;;;;;;;;;4994474;28;8580;-83
2022/09/05 12:10:08;;;;;;;;;;;;;;;;;;5010721;28;8812;-83
2022/09/05 12:12:34;;;;;;;;;;;;;;;;;;4995454;28;7234;-87
2022/09/05 12:15:19;;;;;;;;;;;;;;;;;;4993726;28;8519;-81
2022/09/05 12:18:01;;;;;;;;;;;;;;;;;;4995398;28;8537;-82
2022/09/05 12:20:44;;;;;;;;;;;;;;;;;;5011399;28;8645;-83
2022/09/05 12:23:20;;;;;;;;;;;;;;;;;;5010302;28;7240;-85
2022/09/05 12:26:09;;;;;;;;;;;;;;;;;;5010658;28;8571;-85
2022/09/05 12:28:48;;;;;;;;;;;;;;;;;;5009845;28;7249;-84
2022/09/05 12:31:17;;;;;;;;;;;;;;;;;;5010115;28;8568;-82
2022/09/05 12:33:46;;;;;;;;;;;;;;;;;;5010497;28;7347;-84
2022/09/05 12:36:12;;;;;;;;;;;;;;;;;;5010428;28;8868;-84
2022/09/05 12:38:46;;;;;;;;;;;;;;;;;;4994408;28;8682;-85
2022/09/05 12:41:17;;;;;;;;;;;;;;;;;;4993708;28;8494;-85
2022/09/05 12:44:04;;;;;;;;;;;;;;;;;;5010602;28;8605;-83
2022/09/05 12:46:44;;;;;;;;;;;;;;;;;;4994181;28;8929;-85
2022/09/05 12:49:30;;;;;;;;;;;;;;;;;;4994342;28;8575;-84
2022/09/05 12:52:11;;;;;;;;;;;;;;;;;;4993478;28;7289;-84
2022/09/05 12:54:45;;;;;;;;;;;;;;;;;;5010495;28;8523;-84
2022/09/05 12:57:26;;;;;;;;;;;;;;;;;;5011072;28;8523;-83
2022/09/05 12:59:56;;;;;;;;;;;;;;;;;;5010984;28;8436;-84
2022/09/05 13:02:26;;;;;;;;;;;;;;;;;;5014591;28;8930;-83
2022/09/05 13:04:57;;;;;;;;;;;;;;;;;;5014905;28;8521;-82
2022/09/05 13:07:33;;;;;;;;;;;;;;;;;;5014419;28;7262;-83
2022/09/05 13:10:07;;;;;;;;;;;;;;;;;;5014266;28;8547;-82
2022/09/05 13:12:38;;;;;;;;;;;;;;;;;;5014122;28;8819;-82
2022/09/05 13:15:17;;;;;;;;;;;;;;;;;;5014509;28;8813;-84
2022/09/05 13:17:50;;;;;;;;;;;;;;;;;;5014103;28;7144;-84
2022/09/05 13:20:35;;;;;;;;;;;;;;;;;;5014227;28;7123;-85
2022/09/05 13:23:19;;;;;;;;;;;;;;;;;;5013860;28;8850;-83
2022/09/05 13:25:55;;;;;;;;;;;;;;;;;;5013657;28;9474;-83
2022/09/05 13:28:24;;;;;;;;;;;;;;;;;;5014044;28;8626;-83
2022/09/05 13:31:03;;;;;;;;;;;;;;;;;;5014016;28;8638;-84
2022/09/05 13:33:43;;;;;;;;;;;;;;;;;;5014231;28;8604;-83
2022/09/05 13:36:13;;;;;;;;;;;;;;;;;;5014093;28;8552;-84
2022/09/05 13:38:58;;;;;;;;;;;;;;;;;;5014274;28;8387;-85
2022/09/05 13:41:29;;;;;;;;;;;;;;;;;;4997020;28;8911;-85
2022/09/05 13:43:58;;;;;;;;;;;;;;;;;;5014521;28;8896;-85
2022/09/05 13:46:43;;;;;;;;;;;;;;;;;;5013508;28;8891;-85
2022/09/05 13:49:23;;;;;;;;;;;;;;;;;;5013513;28;8634;-83
2022/09/05 13:51:59;;;;;;;;;;;;;;;;;;4997448;28;7276;-83
2022/09/05 13:54:24;;;;;;;;;;;;;;;;;;5014095;28;7362;-85
2022/09/05 13:56:53;;;;;;;;;;;;;;;;;;4996807;28;8622;-84
2022/09/05 13:59:23;;;;;;;;;;;;;;;;;;4997137;28;8921;-85
2022/09/05 14:02:07;;;;;;;;;;;;;;;;;;5013308;28;8917;-85
2022/09/05 14:04:57;;;;;;;;;;;;;;;;;;4996939;28;8494;-82
2022/09/05 14:07:24;;;;;;;;;;;;;;;;;;5013206;28;7284;-83
2022/09/05 14:09:53;;;;;;;;;;;;;;;;;;4996848;28;8562;-82
2022/09/05 14:12:22;;;;;;;;;;;;;;;;;;4996436;28;7127;-81
2022/09/05 14:14:53;;;;;;;;;;;;;;;;;;4996570;28;7612;-80
2022/09/05 14:17:19;;;;;;;;;;;;;;;;;;5013118;28;8511;-80
2022/09/05 14:22:30;;;;;;;;;;;;;;;;;;4997780;28;6889;-81
2022/09/05 14:24:58;;;;;;;;;;;;;;;;;;4996976;28;7114;-82
2022/09/05 14:27:25;;;;;;;;;;;;;;;;;;5012687;28;8679;-82
2022/09/05 14:29:52;;;;;;;;;;;;;;;;;;5012801;28;8665;-82
2022/09/05 14:32:18;;;;;;;;;;;;;;;;;;5013041;28;8685;-81
2022/09/05 14:34:49;;;;;;;;;;;;;;;;;;4996667;28;7124;-81
2022/09/05 14:37:15;;;;;;;;;;;;;;;;;;4996263;28;9266;-81
2022/09/05 14:39:40;;;;;;;;;;;;;;;;;;4996355;28;8901;-81
2022/09/05 14:42:44;;;;;;;;;;;;;;;;;;4996460;28;8881;-81
2022/09/05 14:45:18;;;;;;;;;;;;;;;;;;4940523;28;8473;-82
2022/09/05 14:47:45;;;;;;;;;;;;;;;;;;4940508;28;7919;-81
2022/09/05 14:50:10;;;;;;;;;;;;;;;;;;4940559;28;8542;-81
2022/09/05 14:52:36;;;;;;;;;;;;;;;;;;4941109;28;8711;-82
2022/09/05 14:55:12;;;;;;;;;;;;;;;;;;4956520;28;8664;-82
2022/09/05 14:57:42;;;;;;;;;;;;;;;;;;4956896;28;7273;-82
2022/09/05 15:00:26;;;;;;;;;;;;;;;;;;4956414;28;8929;-83
2022/09/05 15:02:55;;;;;;;;;;;;;;;;;;4956600;28;7474;-81
2022/09/05 15:05:20;;;;;;;;;;;;;;;;;;4956547;28;8813;-82
2022/09/05 15:08:00;;;;;;;;;;;;;;;;;;4940344;28;9057;-82
2022/09/05 15:10:47;;;;;;;;;;;;;;;;;;4956267;28;8565;-83
2022/09/05 15:13:16;;;;;;;;;;;;;;;;;;4956122;28;9013;-82
2022/09/05 15:15:51;;;;;;;;;;;;;;;;;;4972654;28;8664;-83
2022/09/05 15:18:17;;;;;;;;;;;;;;;;;;5012101;28;7336;-83
2022/09/05 15:20:49;;;;;;;;;;;;;;;;;;4995466;28;7122;-83
2022/09/05 15:23:17;;;;;;;;;;;;;;;;;;5011166;28;8896;-82
2022/09/05 15:25:44;;;;;;;;;;;;;;;;;;4994863;28;7168;-81
2022/09/05 15:28:17;;;;;;;;;;;;;;;;;;4996113;28;9309;-83
2022/09/05 15:30:54;;;;;;;;;;;;;;;;;;5012275;28;8907;-82
2022/09/05 15:33:22;;;;;;;;;;;;;;;;;;5012391;28;8507;-83
2022/09/05 15:35:47;;;;;;;;;;;;;;;;;;5011928;28;8906;-80
2022/09/05 15:38:22;;;;;;;;;;;;;;;;;;5011489;28;9017;-81
2022/09/05 15:41:06;;;;;;;;;;;;;;;;;;4995202;28;8472;-82
2022/09/05 15:43:34;;;;;;;;;;;;;;;;;;4995044;28;8681;-83
2022/09/05 15:46:04;;;;;;;;;;;;;;;;;;5010823;28;8403;-83
2022/09/05 15:48:34;;;;;;;;;;;;;;;;;;5010556;28;8512;-84
2022/09/05 15:51:06;;;;;;;;;;;;;;;;;;5011117;28;8963;-84
2022/09/05 15:53:35;;;;;;;;;;;;;;;;;;5011268;28;8859;-84
2022/09/05 15:56:15;;;;;;;;;;;;;;;;;;5010606;28;7103;-82
2022/09/05 15:58:48;;;;;;;;;;;;;;;;;;5010731;28;9484;-81
2022/09/05 16:01:16;;;;;;;;;;;;;;;;;;5011150;28;8487;-81
2022/09/05 16:03:44;;;;;;;;;;;;;;;;;;5010734;28;7169;-82
2022/09/05 16:06:12;;;;;;;;;;;;;;;;;;5011067;28;8617;-82
2022/09/05 16:08:44;;;;;;;;;;;;;;;;;;5010928;28;8511;-82
2022/09/05 16:11:30;;;;;;;;;;;;;;;;;;5011259;28;9916;-82
2022/09/05 16:14:16;;;;;;;;;;;;;;;;;;4994342;28;9283;-81
2022/09/05 16:16:46;;;;;;;;;;;;;;;;;;4994072;28;9600;-82
2022/09/05 16:19:25;;;;;;;;;;;;;;;;;;5010889;28;8547;-81
2022/09/05 16:21:52;;;;;;;;;;;;;;;;;;5010691;28;8832;-80
2022/09/05 16:24:21;;;;;;;;;;;;;;;;;;5010717;28;7182;-81
2022/09/05 16:26:51;;;;;;;;;;;;;;;;;;5010578;28;8696;-82
2022/09/05 16:29:29;;;;;;;;;;;;;;;;;;5010613;28;8901;-82
2022/09/05 16:31:58;;;;;;;;;;;;;;;;;;5010606;28;8844;-81
2022/09/05 16:34:23;;;;;;;;;;;;;;;;;;4994232;28;8555;-82
2022/09/05 16:36:55;;;;;;;;;;;;;;;;;;4994057;28;8506;-81
2022/09/05 16:39:23;;;;;;;;;;;;;;;;;;5011048;28;7060;-82
2022/09/05 16:42:11;;;;;;;;;;;;;;;;;;5010423;28;8534;-81
2022/09/05 16:44:43;;;;;;;;;;;;;;;;;;5010555;28;8771;-83
2022/09/05 16:47:08;;;;;;;;;;;;;;;;;;5010804;28;8484;-82
2022/09/05 16:49:51;;;;;;;;;;;;;;;;;;4994008;28;8594;-81
2022/09/05 16:52:19;;;;;;;;;;;;;;;;;;5009347;28;8567;-82
2022/09/05 16:54:50;;;;;;;;;;;;;;;;;;5009324;28;8474;-81
2022/09/05 16:57:19;;;;;;;;;;;;;;;;;;5009470;28;8803;-82
2022/09/05 16:59:47;;;;;;;;;;;;;;;;;;5009950;28;8587;-85
2022/09/05 17:02:39;;;;;;;;;;;;;;;;;;5009457;28;8524;-86
2022/09/05 17:05:07;;;;;;;;;;;;;;;;;;4970962;28;8579;-85
2022/09/05 17:07:33;;;;;;;;;;;;;;;;;;4993505;28;8498;-83
2022/09/05 17:10:07;;;;;;;;;;;;;;;;;;4993516;28;8613;-84
2022/09/05 17:12:37;;;;;;;;;;;;;;;;;;5010301;28;8499;-83
2022/09/05 17:15:41;;;;;;;;;;;;;;;;;;5010407;28;9160;-84
2022/09/05 17:18:10;;;;;;;;;;;;;;;;;;4938525;29;8520;-84
2022/09/05 17:20:39;;;;;;;;;;;;;;;;;;4954364;29;8546;-84
2022/09/05 17:23:13;;;;;;;;;;;;;;;;;;4954092;29;8493;-84
2022/09/05 17:25:46;;;;;;;;;;;;;;;;;;4938178;29;8505;-82
2022/09/05 17:28:31;;;;;;;;;;;;;;;;;;4954118;29;7258;-82
2022/09/05 17:31:00;;;;;;;;;;;;;;;;;;4938218;29;8451;-82
2022/09/05 17:33:29;;;;;;;;;;;;;;;;;;4954379;29;8423;-82
2022/09/05 17:36:03;;;;;;;;;;;;;;;;;;4954401;29;8445;-82
2022/09/05 17:38:35;;;;;;;;;;;;;;;;;;4954331;29;8514;-82
2022/09/05 17:41:03;;;;;;;;;;;;;;;;;;4938050;29;7134;-82
2022/09/05 17:43:31;;;;;;;;;;;;;;;;;;4938326;29;8706;-82
2022/09/05 17:46:15;;;;;;;;;;;;;;;;;;4954342;29;7121;-82
2022/09/05 17:48:47;;;;;;;;;;;;;;;;;;4962952;28;7223;-82
2022/09/05 17:51:33;;;;;;;;;;;;;;;;;;4997566;28;7218;-82
2022/09/05 17:53:58;;;;;;;;;;;;;;;;;;5013363;28;8400;-83
2022/09/05 17:56:43;;;;;;;;;;;;;;;;;;4996836;28;8442;-83
2022/09/05 17:59:11;;;;;;;;;;;;;;;;;;5013749;28;8520;-83
2022/09/05 18:01:39;;;;;;;;;;;;;;;;;;4997138;28;8438;-82
2022/09/05 18:04:06;;;;;;;;;;;;;;;;;;5013389;28;8944;-83
2022/09/05 18:06:35;;;;;;;;;;;;;;;;;;5013387;28;8762;-82